Time;durP1;ratioP1;P1;durP2;ratioP2;P2;SDS_P1;SDS_P2;PMS_P1;PMS_P2;Temp;Humidity;BMP_temperature;BMP_pressure;BME280_temperature;BME280_humidity;BME280_pressure;Samples;Min_cycle;Max_cycle;Signal;HPM_P1;HPM_P2
2024/01/23 00:01:48;;;;;;;;;4.00;2.00;;;;;;;;5132533;27;28487;-83
2024/01/23 00:04:14;;;;;;;;;3.00;1.00;;;;;;;;5128973;27;30375;-84
2024/01/23 00:06:41;;;;;;;;;5.33;4.00;;;;;;;;5123243;27;28545;-84
2024/01/23 00:09:06;;;;;;;;;2.00;1.00;;;;;;;;5131728;27;28625;-83
2024/01/23 00:11:32;;;;;;;;;5.67;2.00;;;;;;;;5144954;27;28466;-83
2024/01/23 00:13:57;;;;;;;;;4.33;3.67;;;;;;;;5130572;27;29169;-83
2024/01/23 00:16:22;;;;;;;;;4.00;1.00;;;;;;;;5141336;27;29927;-84
2024/01/23 00:18:47;;;;;;;;;6.00;3.00;;;;;;;;5128567;27;28506;-84
2024/01/23 00:21:13;;;;;;;;;2.00;2.00;;;;;;;;5138268;27;28464;-84
2024/01/23 00:23:38;;;;;;;;;3.33;1.33;;;;;;;;5124183;27;28437;-84
2024/01/23 00:26:04;;;;;;;;;6.00;1.00;;;;;;;;5127957;27;28851;-81
2024/01/23 00:28:30;;;;;;;;;4.00;3.00;;;;;;;;5128276;27;28528;-81
2024/01/23 00:30:55;;;;;;;;;8.00;3.33;;;;;;;;5130475;27;28155;-80
2024/01/23 00:33:20;;;;;;;;;3.00;3.00;;;;;;;;5127404;27;29386;-83
2024/01/23 00:35:46;;;;;;;;;3.67;2.00;;;;;;;;5133333;27;29886;-84
2024/01/23 00:38:11;;;;;;;;;3.67;3.00;;;;;;;;5126488;27;28689;-82
2024/01/23 00:40:36;;;;;;;;;6.00;2.67;;;;;;;;5128779;27;28481;-81
2024/01/23 00:43:02;;;;;;;;;2.00;2.00;;;;;;;;5120605;27;29329;-83
2024/01/23 00:45:27;;;;;;;;;2.33;2.33;;;;;;;;5135511;27;28694;-82
2024/01/23 00:47:52;;;;;;;;;5.67;2.00;;;;;;;;5136465;27;28442;-83
2024/01/23 00:50:17;;;;;;;;;2.00;2.00;;;;;;;;5134774;27;28587;-82
2024/01/23 00:52:43;;;;;;;;;5.67;3.33;;;;;;;;5139511;27;29190;-84
2024/01/23 00:55:08;;;;;;;;;3.00;2.00;;;;;;;;5156275;27;29020;-84
2024/01/23 00:57:33;;;;;;;;;4.67;2.00;;;;;;;;5136977;27;29266;-82
2024/01/23 01:00:00;;;;;;;;;2.67;2.00;;;;;;;;5133171;27;28696;-83
2024/01/23 01:02:26;;;;;;;;;1.00;1.00;;;;;;;;5138584;27;29288;-84
2024/01/23 01:04:51;;;;;;;;;1.67;1.33;;;;;;;;5129241;27;30340;-82
2024/01/23 01:07:16;;;;;;;;;2.67;0.33;;;;;;;;5143750;27;29054;-83
2024/01/23 01:09:41;;;;;;;;;3.00;1.00;;;;;;;;5131707;27;28467;-83
2024/01/23 01:12:07;;;;;;;;;3.00;2.00;;;;;;;;5130867;27;28456;-83
2024/01/23 01:14:34;;;;;;;;;2.00;1.00;;;;;;;;5136279;27;30100;-84
2024/01/23 01:17:02;;;;;;;;;7.33;3.00;;;;;;;;5133221;27;28624;-83
2024/01/23 01:19:27;;;;;;;;;2.00;1.33;;;;;;;;5135931;27;28558;-84
2024/01/23 01:21:52;;;;;;;;;6.00;2.00;;;;;;;;5131054;27;29401;-83
2024/01/23 01:24:18;;;;;;;;;4.00;2.00;;;;;;;;5133748;27;30344;-83
2024/01/23 01:26:43;;;;;;;;;3.33;1.00;;;;;;;;5132222;27;29865;-83
2024/01/23 01:29:08;;;;;;;;;3.00;2.00;;;;;;;;5144975;27;28542;-84
2024/01/23 01:31:33;;;;;;;;;2.33;2.00;;;;;;;;5134528;27;30364;-83
2024/01/23 01:33:59;;;;;;;;;3.67;2.00;;;;;;;;5140207;27;30014;-83
2024/01/23 01:36:24;;;;;;;;;3.00;3.00;;;;;;;;5136630;27;29572;-82
2024/01/23 01:38:49;;;;;;;;;2.33;2.33;;;;;;;;5134084;27;28535;-81
2024/01/23 01:41:15;;;;;;;;;2.00;1.67;;;;;;;;5136337;27;30610;-83
2024/01/23 01:43:40;;;;;;;;;3.00;1.33;;;;;;;;5132158;27;30231;-83
2024/01/23 01:46:16;;;;;;;;;3.00;2.00;;;;;;;;5139670;27;29782;-82
2024/01/23 01:48:42;;;;;;;;;5.33;2.67;;;;;;;;5152691;27;28626;-83
2024/01/23 01:51:07;;;;;;;;;2.67;1.67;;;;;;;;5117687;27;29189;-83
2024/01/23 01:53:34;;;;;;;;;5.67;2.33;;;;;;;;5130729;27;28965;-83
2024/01/23 01:55:59;;;;;;;;;5.00;1.67;;;;;;;;5127527;27;28616;-83
2024/01/23 01:58:24;;;;;;;;;4.67;2.33;;;;;;;;5147578;27;28362;-81
2024/01/23 02:00:53;;;;;;;;;4.00;1.67;;;;;;;;5130493;27;28831;-82
2024/01/23 02:03:18;;;;;;;;;4.00;2.33;;;;;;;;5150591;27;29693;-82
2024/01/23 02:05:44;;;;;;;;;3.00;2.00;;;;;;;;5135312;27;30187;-82
2024/01/23 02:08:09;;;;;;;;;2.00;1.67;;;;;;;;5134993;27;28435;-83
2024/01/23 02:10:35;;;;;;;;;3.00;1.67;;;;;;;;5141645;27;28837;-83
2024/01/23 02:13:00;;;;;;;;;5.00;3.00;;;;;;;;5137618;27;28919;-84
2024/01/23 02:15:26;;;;;;;;;6.00;1.67;;;;;;;;5132366;27;28552;-82
2024/01/23 02:17:52;;;;;;;;;3.00;2.00;;;;;;;;5122866;27;28945;-84
2024/01/23 02:20:17;;;;;;;;;6.00;3.67;;;;;;;;5144899;27;29344;-85
2024/01/23 02:22:42;;;;;;;;;6.33;2.00;;;;;;;;5134935;27;28531;-84
2024/01/23 02:25:08;;;;;;;;;3.00;2.67;;;;;;;;5130156;27;28574;-83
2024/01/23 02:27:33;;;;;;;;;4.00;3.33;;;;;;;;5132075;27;28455;-84
2024/01/23 02:29:58;;;;;;;;;3.00;2.00;;;;;;;;5134104;27;30928;-85
2024/01/23 02:32:23;;;;;;;;;6.33;3.00;;;;;;;;5145195;27;30262;-85
2024/01/23 02:34:48;;;;;;;;;5.67;3.00;;;;;;;;5132387;27;28894;-83
2024/01/23 02:37:14;;;;;;;;;1.00;1.00;;;;;;;;5140451;27;28979;-83
2024/01/23 02:39:39;;;;;;;;;7.00;4.00;;;;;;;;5140988;27;29573;-84
2024/01/23 02:42:04;;;;;;;;;5.67;2.33;;;;;;;;5131171;27;29856;-83
2024/01/23 02:44:29;;;;;;;;;5.33;2.33;;;;;;;;5144262;27;28637;-83
2024/01/23 02:46:55;;;;;;;;;7.67;6.00;;;;;;;;5123959;27;28728;-84
2024/01/23 02:49:20;;;;;;;;;4.67;2.33;;;;;;;;5125655;27;28465;-84
2024/01/23 02:51:45;;;;;;;;;3.00;3.00;;;;;;;;5136274;27;29784;-84
2024/01/23 02:54:11;;;;;;;;;6.33;2.00;;;;;;;;5135353;27;28488;-84
2024/01/23 02:56:37;;;;;;;;;3.00;2.00;;;;;;;;5137444;27;28613;-84
2024/01/23 02:59:02;;;;;;;;;2.33;1.67;;;;;;;;5138323;27;28497;-86
2024/01/23 03:01:27;;;;;;;;;3.67;3.33;;;;;;;;5142556;27;29823;-84
2024/01/23 03:03:52;;;;;;;;;3.00;3.00;;;;;;;;5136046;27;28029;-84
2024/01/23 03:06:19;;;;;;;;;5.33;2.67;;;;;;;;5135928;27;28536;-86
2024/01/23 03:08:44;;;;;;;;;5.00;2.00;;;;;;;;5137249;27;29323;-83
2024/01/23 03:11:09;;;;;;;;;4.00;2.33;;;;;;;;5140537;27;30012;-84
2024/01/23 03:13:35;;;;;;;;;2.00;2.00;;;;;;;;5150047;27;29014;-84
2024/01/23 03:16:00;;;;;;;;;6.33;3.00;;;;;;;;5150483;27;28980;-86
2024/01/23 03:18:25;;;;;;;;;3.67;2.33;;;;;;;;5134422;27;29478;-85
2024/01/23 03:20:50;;;;;;;;;7.67;1.67;;;;;;;;5128948;27;29036;-84
2024/01/23 03:23:16;;;;;;;;;5.67;3.33;;;;;;;;5142243;27;28562;-85
2024/01/23 03:25:41;;;;;;;;;6.67;3.33;;;;;;;;5132907;27;27922;-83
2024/01/23 03:28:07;;;;;;;;;4.00;2.67;;;;;;;;5129014;27;28747;-85
2024/01/23 03:30:32;;;;;;;;;6.00;3.00;;;;;;;;5119411;27;29862;-80
2024/01/23 03:32:58;;;;;;;;;4.67;3.00;;;;;;;;5126733;27;29052;-80
2024/01/23 03:35:24;;;;;;;;;6.00;1.67;;;;;;;;5131105;27;28873;-84
2024/01/23 03:37:50;;;;;;;;;5.33;4.33;;;;;;;;5131025;27;29334;-83
2024/01/23 03:40:16;;;;;;;;;4.67;3.00;;;;;;;;5134141;27;28270;-80
2024/01/23 03:42:41;;;;;;;;;4.33;1.67;;;;;;;;5130448;27;28475;-81
2024/01/23 03:45:06;;;;;;;;;6.33;3.33;;;;;;;;5148716;27;28625;-82
2024/01/23 03:47:32;;;;;;;;;4.00;3.00;;;;;;;;5134867;27;28734;-83
2024/01/23 03:49:57;;;;;;;;;6.00;4.00;;;;;;;;5134309;27;28443;-81
2024/01/23 03:52:22;;;;;;;;;6.33;4.33;;;;;;;;5128305;27;28549;-83
2024/01/23 03:54:48;;;;;;;;;2.67;0.00;;;;;;;;5126154;27;28869;-82
2024/01/23 03:57:13;;;;;;;;;3.67;2.00;;;;;;;;5130806;27;28441;-83
2024/01/23 03:59:42;;;;;;;;;3.00;2.00;;;;;;;;5129495;27;29893;-82
2024/01/23 04:02:07;;;;;;;;;5.00;2.33;;;;;;;;5128226;27;28500;-82
2024/01/23 04:04:32;;;;;;;;;9.33;3.33;;;;;;;;5122950;27;28436;-81
2024/01/23 04:06:58;;;;;;;;;6.67;2.00;;;;;;;;5125313;27;28523;-84
2024/01/23 04:09:23;;;;;;;;;11.33;3.00;;;;;;;;5132347;27;29539;-82
2024/01/23 04:11:48;;;;;;;;;5.67;2.33;;;;;;;;5134665;27;28485;-81
2024/01/23 04:14:14;;;;;;;;;5.00;2.67;;;;;;;;5129413;27;28730;-81
2024/01/23 04:16:39;;;;;;;;;2.67;1.00;;;;;;;;5133529;27;29631;-82
2024/01/23 04:19:04;;;;;;;;;5.67;2.67;;;;;;;;5127649;27;28425;-83
2024/01/23 04:21:29;;;;;;;;;4.00;4.00;;;;;;;;5139633;27;28715;-83
2024/01/23 04:23:55;;;;;;;;;7.00;3.67;;;;;;;;5141189;27;28738;-80
2024/01/23 04:26:20;;;;;;;;;4.33;2.00;;;;;;;;5130245;27;29451;-82
2024/01/23 04:28:46;;;;;;;;;8.00;5.00;;;;;;;;5136282;27;28858;-83
2024/01/23 04:31:12;;;;;;;;;7.00;4.33;;;;;;;;5133223;27;28795;-82
2024/01/23 04:33:37;;;;;;;;;4.00;2.00;;;;;;;;5129916;27;28577;-82
2024/01/23 04:36:03;;;;;;;;;7.33;2.67;;;;;;;;5131194;27;28660;-84
2024/01/23 04:38:30;;;;;;;;;5.67;2.33;;;;;;;;5133618;27;28497;-83
2024/01/23 04:40:55;;;;;;;;;7.33;3.33;;;;;;;;5132125;27;28486;-82
2024/01/23 04:43:21;;;;;;;;;10.67;3.33;;;;;;;;5140282;27;28450;-82
2024/01/23 04:45:46;;;;;;;;;7.33;4.00;;;;;;;;5137962;27;28956;-85
2024/01/23 04:48:11;;;;;;;;;2.00;2.00;;;;;;;;5127005;27;28876;-83
2024/01/23 04:50:37;;;;;;;;;8.00;3.00;;;;;;;;5123994;27;29206;-81
2024/01/23 04:53:03;;;;;;;;;4.33;3.00;;;;;;;;5126089;27;28084;-81
2024/01/23 04:55:31;;;;;;;;;3.67;2.67;;;;;;;;5131444;27;29648;-81
2024/01/23 04:57:57;;;;;;;;;5.33;3.00;;;;;;;;5141491;27;30567;-80
2024/01/23 05:00:25;;;;;;;;;5.67;4.00;;;;;;;;5131704;27;29539;-81
2024/01/23 05:02:50;;;;;;;;;4.67;3.00;;;;;;;;5126308;27;28605;-80
2024/01/23 05:05:15;;;;;;;;;8.00;3.00;;;;;;;;5134233;27;29115;-82
2024/01/23 05:07:41;;;;;;;;;4.67;4.00;;;;;;;;5126253;27;29646;-83
2024/01/23 05:10:07;;;;;;;;;8.33;2.67;;;;;;;;5131956;27;28584;-81
2024/01/23 05:12:32;;;;;;;;;5.00;5.00;;;;;;;;5134061;27;28328;-84
2024/01/23 05:14:58;;;;;;;;;4.33;2.67;;;;;;;;5127533;27;29017;-82
2024/01/23 05:17:23;;;;;;;;;8.00;3.33;;;;;;;;5127962;27;28738;-84
2024/01/23 05:19:48;;;;;;;;;6.67;3.33;;;;;;;;5132851;27;28483;-84
2024/01/23 05:22:13;;;;;;;;;3.00;2.33;;;;;;;;5129556;27;28756;-85
2024/01/23 05:24:38;;;;;;;;;4.00;4.00;;;;;;;;5122666;27;28670;-83
2024/01/23 05:27:04;;;;;;;;;6.00;3.67;;;;;;;;5136190;27;29398;-84
2024/01/23 05:29:29;;;;;;;;;6.33;3.00;;;;;;;;5146104;27;28573;-83
2024/01/23 05:31:54;;;;;;;;;7.00;3.33;;;;;;;;5132825;27;28488;-84
2024/01/23 05:34:19;;;;;;;;;6.00;4.00;;;;;;;;5130265;27;28486;-77
2024/01/23 05:36:45;;;;;;;;;4.67;3.00;;;;;;;;5126561;27;30325;-79
2024/01/23 05:39:10;;;;;;;;;5.00;4.00;;;;;;;;5127662;27;29650;-79
2024/01/23 05:41:35;;;;;;;;;4.67;2.67;;;;;;;;5126677;27;28415;-80
2024/01/23 05:44:01;;;;;;;;;6.00;3.00;;;;;;;;5132841;27;29155;-79
2024/01/23 05:46:27;;;;;;;;;7.67;4.67;;;;;;;;5128395;27;28977;-80
2024/01/23 05:48:52;;;;;;;;;6.67;5.00;;;;;;;;5127848;27;28789;-80
2024/01/23 05:51:17;;;;;;;;;9.00;5.00;;;;;;;;5132781;27;28825;-78
2024/01/23 05:53:42;;;;;;;;;7.67;3.67;;;;;;;;5125190;27;29493;-77
2024/01/23 05:56:08;;;;;;;;;10.33;7.33;;;;;;;;5126387;27;30411;-78
2024/01/23 05:58:33;;;;;;;;;4.67;3.67;;;;;;;;5127222;27;28642;-79
2024/01/23 06:00:58;;;;;;;;;10.67;4.00;;;;;;;;5125313;27;28680;-79
2024/01/23 06:03:23;;;;;;;;;6.33;4.00;;;;;;;;5123495;27;28476;-78
2024/01/23 06:05:49;;;;;;;;;5.67;2.67;;;;;;;;5129811;27;29377;-78
2024/01/23 06:08:14;;;;;;;;;6.33;2.00;;;;;;;;5125648;27;28720;-79
2024/01/23 06:10:39;;;;;;;;;2.00;2.00;;;;;;;;5133797;27;28960;-77
2024/01/23 06:13:04;;;;;;;;;3.67;2.00;;;;;;;;5132454;27;28896;-79
2024/01/23 06:15:31;;;;;;;;;4.67;4.00;;;;;;;;5126952;27;30044;-78
2024/01/23 06:17:56;;;;;;;;;8.67;3.33;;;;;;;;5134952;27;29270;-78
2024/01/23 06:20:21;;;;;;;;;7.00;4.33;;;;;;;;5118470;27;27947;-78
2024/01/23 06:22:46;;;;;;;;;6.67;4.00;;;;;;;;5127005;27;29470;-79
2024/01/23 06:25:16;;;;;;;;;6.33;3.67;;;;;;;;5126330;27;28130;-79
2024/01/23 06:27:44;;;;;;;;;6.67;5.00;;;;;;;;5130756;27;28755;-79
2024/01/23 06:30:11;;;;;;;;;8.33;5.00;;;;;;;;5123163;27;28682;-79
2024/01/23 06:32:37;;;;;;;;;5.33;2.00;;;;;;;;5126540;27;28639;-80
2024/01/23 06:35:02;;;;;;;;;6.33;3.00;;;;;;;;5127281;27;30395;-79
2024/01/23 06:37:28;;;;;;;;;6.00;3.00;;;;;;;;5137095;27;28790;-78
2024/01/23 06:39:54;;;;;;;;;6.33;3.00;;;;;;;;5137293;27;28778;-86
2024/01/23 06:42:19;;;;;;;;;7.00;6.00;;;;;;;;5138355;27;28938;-85
2024/01/23 06:44:45;;;;;;;;;7.67;4.67;;;;;;;;5138664;27;28590;-87
2024/01/23 06:47:10;;;;;;;;;8.00;7.00;;;;;;;;5141604;27;28546;-85
2024/01/23 06:49:35;;;;;;;;;8.33;7.00;;;;;;;;5134973;27;28434;-84
2024/01/23 06:52:02;;;;;;;;;6.00;6.00;;;;;;;;5129763;27;29560;-87
2024/01/23 06:54:28;;;;;;;;;9.33;6.33;;;;;;;;5140487;27;28480;-84
2024/01/23 06:56:53;;;;;;;;;6.67;4.67;;;;;;;;5139660;27;29074;-85
2024/01/23 06:59:18;;;;;;;;;5.67;4.67;;;;;;;;5125125;27;28507;-86
2024/01/23 07:01:44;;;;;;;;;7.00;3.00;;;;;;;;5135464;27;27968;-85
2024/01/23 07:04:09;;;;;;;;;8.67;5.33;;;;;;;;5139150;27;29361;-87
2024/01/23 07:06:35;;;;;;;;;9.67;3.00;;;;;;;;5134352;27;28950;-83
2024/01/23 07:09:10;;;;;;;;;5.67;3.00;;;;;;;;5140261;27;28886;-90
2024/01/23 07:11:40;;;;;;;;;5.33;4.00;;;;;;;;5149327;27;29539;-87
2024/01/23 07:14:08;;;;;;;;;5.00;5.00;;;;;;;;5146892;27;28509;-88
2024/01/23 07:16:33;;;;;;;;;5.67;3.00;;;;;;;;5130206;27;28377;-86
2024/01/23 07:18:59;;;;;;;;;7.33;5.67;;;;;;;;5137843;27;28517;-86
2024/01/23 07:21:25;;;;;;;;;6.67;4.33;;;;;;;;5158859;27;30083;-87
2024/01/23 07:23:52;;;;;;;;;7.00;3.33;;;;;;;;5150787;27;28574;-85
2024/01/23 07:26:18;;;;;;;;;5.00;3.00;;;;;;;;5141370;27;28685;-85
2024/01/23 07:28:56;;;;;;;;;8.00;5.33;;;;;;;;5129361;27;28759;-86
2024/01/23 07:31:39;;;;;;;;;4.00;3.33;;;;;;;;5134083;27;29377;-85
2024/01/23 07:34:04;;;;;;;;;6.33;5.00;;;;;;;;5129287;27;28574;-79
2024/01/23 07:36:29;;;;;;;;;12.67;10.00;;;;;;;;5130793;27;28414;-79
2024/01/23 07:38:54;;;;;;;;;13.33;6.33;;;;;;;;5130036;27;28472;-79
2024/01/23 07:41:55;;;;;;;;;7.67;5.67;;;;;;;;5131686;27;28578;-87
2024/01/23 07:44:43;;;;;;;;;9.67;5.33;;;;;;;;5143025;27;28623;-87
2024/01/23 07:47:09;;;;;;;;;10.00;4.67;;;;;;;;5137696;27;28544;-87
2024/01/23 07:49:46;;;;;;;;;8.33;4.00;;;;;;;;5132055;27;28537;-87
2024/01/23 07:52:15;;;;;;;;;5.00;5.00;;;;;;;;5139678;27;28558;-87
2024/01/23 07:54:48;;;;;;;;;13.00;6.33;;;;;;;;5147312;27;28525;-85
2024/01/23 07:57:29;;;;;;;;;6.67;6.00;;;;;;;;5148818;27;28592;-87
2024/01/23 08:00:10;;;;;;;;;;;;;;;;;;;;;
2024/01/23 08:02:40;;;;;;;;;8.67;7.00;;;;;;;;5133924;27;56867;-86
2024/01/23 08:05:09;;;;;;;;;8.00;4.67;;;;;;;;5162917;27;28577;-88
2024/01/23 08:07:44;;;;;;;;;14.67;6.00;;;;;;;;5138313;27;28617;-86
2024/01/23 08:10:31;;;;;;;;;6.33;4.00;;;;;;;;5155024;27;28613;-87
2024/01/23 08:12:58;;;;;;;;;10.00;4.00;;;;;;;;5146896;27;28041;-86
2024/01/23 08:15:35;;;;;;;;;6.67;4.00;;;;;;;;5136472;27;30303;-86
2024/01/23 08:18:13;;;;;;;;;9.33;3.33;;;;;;;;5137260;27;28406;-86
2024/01/23 08:20:39;;;;;;;;;5.00;4.33;;;;;;;;5144401;27;28470;-82
2024/01/23 08:23:04;;;;;;;;;7.00;4.00;;;;;;;;5142004;27;28499;-77
2024/01/23 08:25:29;;;;;;;;;7.33;5.33;;;;;;;;5128647;27;30100;-79
2024/01/23 08:27:54;;;;;;;;;6.00;4.00;;;;;;;;5130762;27;29642;-79
2024/01/23 08:30:20;;;;;;;;;7.67;5.00;;;;;;;;5132621;27;28549;-80
2024/01/23 08:32:45;;;;;;;;;10.67;6.00;;;;;;;;5129114;27;30886;-78
2024/01/23 08:35:10;;;;;;;;;11.67;6.33;;;;;;;;5135522;27;30298;-80
2024/01/23 08:37:35;;;;;;;;;11.00;4.00;;;;;;;;5129420;27;28880;-79
2024/01/23 08:40:01;;;;;;;;;6.67;5.00;;;;;;;;5125777;27;28534;-79
2024/01/23 08:42:27;;;;;;;;;9.00;3.67;;;;;;;;5132704;27;28270;-80
2024/01/23 08:44:55;;;;;;;;;7.00;5.00;;;;;;;;5128908;27;28422;-79
2024/01/23 08:47:20;;;;;;;;;8.00;4.00;;;;;;;;5147149;27;28987;-80
2024/01/23 08:49:45;;;;;;;;;8.00;5.33;;;;;;;;5127994;27;28678;-80
2024/01/23 08:52:10;;;;;;;;;7.33;5.67;;;;;;;;5132725;27;29696;-77
2024/01/23 08:54:36;;;;;;;;;7.00;4.00;;;;;;;;5141546;27;28460;-80
2024/01/23 08:57:02;;;;;;;;;8.67;5.33;;;;;;;;5138425;27;28529;-78
2024/01/23 08:59:28;;;;;;;;;3.67;3.67;;;;;;;;5133569;27;28347;-79
2024/01/23 09:01:54;;;;;;;;;5.00;4.00;;;;;;;;5129093;27;29680;-78
2024/01/23 09:04:19;;;;;;;;;7.67;5.00;;;;;;;;5131809;27;29197;-80
2024/01/23 09:06:44;;;;;;;;;7.33;5.00;;;;;;;;5133103;27;28589;-79
2024/01/23 09:09:10;;;;;;;;;13.00;6.33;;;;;;;;5132535;27;28869;-78
2024/01/23 09:11:36;;;;;;;;;10.00;6.00;;;;;;;;5132292;27;28541;-79
2024/01/23 09:14:01;;;;;;;;;4.33;4.00;;;;;;;;5129170;27;28554;-81
2024/01/23 09:16:26;;;;;;;;;12.67;6.00;;;;;;;;5129967;27;28873;-79
2024/01/23 09:18:51;;;;;;;;;6.33;6.33;;;;;;;;5116201;27;28997;-78
2024/01/23 09:21:17;;;;;;;;;5.33;4.67;;;;;;;;5126965;27;30310;-79
2024/01/23 09:23:42;;;;;;;;;8.33;4.00;;;;;;;;5138082;27;28543;-80
2024/01/23 09:26:08;;;;;;;;;8.00;5.33;;;;;;;;5149832;27;27967;-80
2024/01/23 09:28:34;;;;;;;;;9.33;7.00;;;;;;;;5119353;27;28894;-78
2024/01/23 09:31:00;;;;;;;;;7.00;5.00;;;;;;;;5138759;27;28677;-78
2024/01/23 09:33:25;;;;;;;;;5.67;4.67;;;;;;;;5127599;27;30945;-79
2024/01/23 09:35:50;;;;;;;;;5.67;5.00;;;;;;;;5130981;27;28915;-78
2024/01/23 09:38:16;;;;;;;;;7.67;4.00;;;;;;;;5128670;27;28467;-79
2024/01/23 09:40:42;;;;;;;;;5.00;5.00;;;;;;;;5129026;27;28739;-78
2024/01/23 09:43:09;;;;;;;;;9.00;4.33;;;;;;;;5130465;27;29662;-79
2024/01/23 09:45:37;;;;;;;;;5.00;4.33;;;;;;;;5137590;27;29098;-79
2024/01/23 09:48:02;;;;;;;;;9.33;5.33;;;;;;;;5145687;27;28359;-79
2024/01/23 09:50:28;;;;;;;;;8.33;8.00;;;;;;;;5127779;27;30115;-79
2024/01/23 09:52:55;;;;;;;;;8.00;5.00;;;;;;;;5130540;27;28505;-81
2024/01/23 09:55:20;;;;;;;;;8.67;5.00;;;;;;;;5132054;27;28436;-80
2024/01/23 09:57:47;;;;;;;;;11.67;8.67;;;;;;;;5132787;27;28758;-79
2024/01/23 10:00:13;;;;;;;;;6.00;4.67;;;;;;;;5125160;27;28760;-80
2024/01/23 10:02:39;;;;;;;;;12.33;6.67;;;;;;;;5123507;27;28413;-79
2024/01/23 10:05:07;;;;;;;;;19.67;5.33;;;;;;;;5128426;27;29481;-80
2024/01/23 10:07:32;;;;;;;;;7.33;4.00;;;;;;;;5130008;27;28666;-78
2024/01/23 10:10:05;;;;;;;;;9.67;5.67;;;;;;;;5136370;27;28557;-81
2024/01/23 10:12:32;;;;;;;;;8.00;4.00;;;;;;;;5147836;27;28637;-77
2024/01/23 10:14:57;;;;;;;;;7.33;3.67;;;;;;;;5129882;27;28931;-79
2024/01/23 10:17:22;;;;;;;;;10.00;4.00;;;;;;;;5132223;27;28549;-79
2024/01/23 10:19:47;;;;;;;;;8.00;5.33;;;;;;;;5130917;27;28777;-78
2024/01/23 10:22:15;;;;;;;;;8.67;3.67;;;;;;;;5129249;27;30087;-79
2024/01/23 10:24:40;;;;;;;;;7.33;5.67;;;;;;;;5125905;27;28475;-80
2024/01/23 10:27:06;;;;;;;;;9.00;4.67;;;;;;;;5114690;27;28945;-80
2024/01/23 10:29:31;;;;;;;;;8.67;7.00;;;;;;;;5127989;27;28534;-79
2024/01/23 10:31:56;;;;;;;;;8.67;5.67;;;;;;;;5116958;27;28730;-79
2024/01/23 10:34:23;;;;;;;;;7.33;6.00;;;;;;;;5120411;27;29506;-79
2024/01/23 10:36:49;;;;;;;;;9.33;6.67;;;;;;;;5126005;27;28672;-79
2024/01/23 10:39:15;;;;;;;;;7.33;5.00;;;;;;;;5138860;27;28650;-79
2024/01/23 10:41:40;;;;;;;;;7.67;4.67;;;;;;;;5123914;27;29187;-79
2024/01/23 10:44:05;;;;;;;;;9.00;4.33;;;;;;;;5131099;27;28810;-79
2024/01/23 10:46:31;;;;;;;;;6.67;6.00;;;;;;;;5124228;27;28534;-79
2024/01/23 10:48:56;;;;;;;;;7.67;3.00;;;;;;;;5127955;27;28598;-80
2024/01/23 10:51:23;;;;;;;;;10.33;5.67;;;;;;;;5117731;27;29859;-78
2024/01/23 10:53:57;;;;;;;;;8.00;5.00;;;;;;;;5144682;27;28505;-80
2024/01/23 10:56:23;;;;;;;;;11.33;5.33;;;;;;;;5116633;27;28495;-79
2024/01/23 10:58:52;;;;;;;;;10.67;6.67;;;;;;;;5128662;27;29647;-79
2024/01/23 11:01:18;;;;;;;;;10.00;6.67;;;;;;;;5129178;27;28613;-79
2024/01/23 11:03:44;;;;;;;;;6.00;3.67;;;;;;;;5125874;27;28489;-79
2024/01/23 11:06:17;;;;;;;;;7.00;5.00;;;;;;;;5144461;27;28370;-80
2024/01/23 11:08:45;;;;;;;;;9.33;6.00;;;;;;;;5139824;27;29628;-80
2024/01/23 11:11:10;;;;;;;;;6.00;5.67;;;;;;;;5136246;27;28518;-80
2024/01/23 11:13:41;;;;;;;;;11.67;5.00;;;;;;;;5129918;27;28479;-79
2024/01/23 11:16:08;;;;;;;;;15.00;4.67;;;;;;;;5113467;27;28484;-80
2024/01/23 11:18:34;;;;;;;;;12.67;7.00;;;;;;;;5127375;27;29564;-80
2024/01/23 11:21:05;;;;;;;;;7.00;3.67;;;;;;;;5130447;27;28914;-80
2024/01/23 11:23:31;;;;;;;;;8.33;5.00;;;;;;;;5131033;27;28459;-80
2024/01/23 11:26:12;;;;;;;;;12.67;6.67;;;;;;;;5123243;27;28789;-80
2024/01/23 11:28:38;;;;;;;;;7.67;6.33;;;;;;;;5111387;27;29643;-80
2024/01/23 11:31:06;;;;;;;;;10.00;4.67;;;;;;;;5120020;27;28845;-80
2024/01/23 11:33:32;;;;;;;;;9.00;5.00;;;;;;;;5114517;27;28794;-81
2024/01/23 11:36:11;;;;;;;;;12.67;5.00;;;;;;;;5117069;27;28591;-80
2024/01/23 11:38:44;;;;;;;;;6.67;3.00;;;;;;;;5110001;27;28813;-80
2024/01/23 11:41:15;;;;;;;;;11.33;6.00;;;;;;;;5123177;27;29244;-80
2024/01/23 11:43:40;;;;;;;;;8.33;5.00;;;;;;;;5115240;27;28873;-80
2024/01/23 11:46:10;;;;;;;;;4.33;4.33;;;;;;;;5125741;27;28747;-80
2024/01/23 11:48:36;;;;;;;;;8.67;6.67;;;;;;;;5119366;27;28522;-81
2024/01/23 11:51:03;;;;;;;;;6.33;5.00;;;;;;;;5123828;27;28450;-81
2024/01/23 11:53:29;;;;;;;;;5.67;4.00;;;;;;;;5119906;27;28699;-80
2024/01/23 11:55:55;;;;;;;;;10.33;7.33;;;;;;;;5115310;27;28751;-80
2024/01/23 11:58:20;;;;;;;;;5.33;4.33;;;;;;;;5118945;27;30829;-80
2024/01/23 12:00:45;;;;;;;;;11.67;5.67;;;;;;;;5120201;27;28831;-80
2024/01/23 12:03:20;;;;;;;;;9.00;4.00;;;;;;;;5115868;27;28459;-80
2024/01/23 12:05:45;;;;;;;;;5.00;3.67;;;;;;;;5109119;27;28774;-79
2024/01/23 12:08:11;;;;;;;;;12.67;7.67;;;;;;;;5120878;27;28970;-79
2024/01/23 12:10:37;;;;;;;;;10.00;6.00;;;;;;;;5107813;27;29906;-80
2024/01/23 12:13:02;;;;;;;;;9.00;6.00;;;;;;;;5116401;27;28895;-79
2024/01/23 12:15:28;;;;;;;;;11.67;5.33;;;;;;;;5140387;27;28418;-90
2024/01/23 12:18:05;;;;;;;;;9.67;6.67;;;;;;;;5125132;27;29350;-87
2024/01/23 12:20:41;;;;;;;;;8.67;7.67;;;;;;;;5135760;27;29163;-92
2024/01/23 12:32:53;;;;;;;;;;;;;;;;;;;;;
2024/01/23 12:36:24;;;;;;;;;11.00;5.67;;;;;;;;5039939;28;56716;-90
2024/01/23 12:38:29;;;;;;;;;9.67;8.00;;;;;;;;5036310;28;28673;-90
2024/01/23 12:41:07;;;;;;;;;14.00;5.67;;;;;;;;5071253;28;28768;-88
2024/01/23 12:43:56;;;;;;;;;8.67;8.00;;;;;;;;5118042;27;28642;-90
2024/01/23 12:46:24;;;;;;;;;10.00;7.00;;;;;;;;5147271;27;27870;-89
2024/01/23 12:48:58;;;;;;;;;8.33;6.33;;;;;;;;5147139;27;28219;-88
2024/01/23 12:51:32;;;;;;;;;10.00;5.00;;;;;;;;5150425;27;27934;-89
2024/01/23 12:53:58;;;;;;;;;11.33;4.00;;;;;;;;5147550;27;28166;-89
2024/01/23 12:56:28;;;;;;;;;11.00;6.00;;;;;;;;5139350;27;28438;-88
2024/01/23 12:58:53;;;;;;;;;3.67;2.33;;;;;;;;5130955;27;27889;-88
2024/01/23 13:01:28;;;;;;;;;8.67;5.00;;;;;;;;5137455;27;28942;-88
2024/01/23 13:03:53;;;;;;;;;7.33;4.00;;;;;;;;5136874;27;29276;-80
2024/01/23 13:06:19;;;;;;;;;7.00;6.00;;;;;;;;5139049;27;28002;-80
2024/01/23 13:08:44;;;;;;;;;8.00;4.33;;;;;;;;5119149;27;28651;-83
2024/01/23 13:11:09;;;;;;;;;9.00;6.33;;;;;;;;5145282;27;29293;-82
2024/01/23 13:13:36;;;;;;;;;6.67;6.67;;;;;;;;5124755;27;28576;-84
2024/01/23 13:22:35;;;;;;;;;12.67;4.33;;;;;;;;5021414;28;28522;-84
2024/01/23 13:25:06;;;;;;;;;8.00;4.33;;;;;;;;5027827;27;28957;-80
2024/01/23 13:27:32;;;;;;;;;6.33;4.00;;;;;;;;5087461;27;28493;-83
2024/01/23 13:30:40;;;;;;;;;;;;;;;;;;;;;
2024/01/23 13:33:39;;;;;;;;;;;;;;;;;;;;;
2024/01/23 13:36:28;;;;;;;;;9.00;3.33;;;;;;;;5076385;28;57033;-86
2024/01/23 14:07:11;;;;;;;;;4.00;4.00;;;;;;;;5122188;27;28745;-72
2024/01/23 14:09:41;;;;;;;;;10.33;5.67;;;;;;;;5104091;27;28354;-73
2024/01/23 14:12:07;;;;;;;;;4.67;2.33;;;;;;;;5104739;27;28432;-74
2024/01/23 14:14:32;;;;;;;;;5.00;4.33;;;;;;;;5105563;27;29180;-72
2024/01/23 14:16:58;;;;;;;;;5.33;3.67;;;;;;;;5105542;27;28469;-73
2024/01/23 14:19:23;;;;;;;;;9.67;6.00;;;;;;;;5105005;27;28773;-73
2024/01/23 14:21:48;;;;;;;;;7.00;2.67;;;;;;;;5104191;27;28383;-71
2024/01/23 14:24:14;;;;;;;;;8.33;5.00;;;;;;;;5104550;27;30186;-73
2024/01/23 14:26:40;;;;;;;;;5.00;3.00;;;;;;;;5106279;27;29164;-74
2024/01/23 14:29:05;;;;;;;;;2.67;1.67;;;;;;;;5105275;27;28180;-73
2024/01/23 14:31:32;;;;;;;;;8.33;3.33;;;;;;;;5105350;27;28563;-74
2024/01/23 14:33:57;;;;;;;;;4.00;2.00;;;;;;;;5105577;27;28685;-72
2024/01/23 14:36:23;;;;;;;;;6.33;1.33;;;;;;;;5105090;27;29171;-73
2024/01/23 14:38:48;;;;;;;;;7.00;3.00;;;;;;;;5105465;27;28312;-73
2024/01/23 14:41:13;;;;;;;;;8.67;4.33;;;;;;;;5107916;27;28371;-72
2024/01/23 14:43:38;;;;;;;;;9.33;4.67;;;;;;;;5103909;27;30801;-73
2024/01/23 14:46:04;;;;;;;;;2.67;2.67;;;;;;;;5102529;27;28650;-72
2024/01/23 14:48:29;;;;;;;;;7.33;3.33;;;;;;;;5103779;27;29144;-73
2024/01/23 14:50:55;;;;;;;;;2.33;1.00;;;;;;;;5104987;27;28505;-72
2024/01/23 14:53:20;;;;;;;;;3.00;2.67;;;;;;;;5105204;27;28739;-73
2024/01/23 14:55:45;;;;;;;;;2.00;2.00;;;;;;;;5105057;27;28412;-71
2024/01/23 14:58:11;;;;;;;;;4.00;2.67;;;;;;;;5105131;27;28563;-72
2024/01/23 15:00:36;;;;;;;;;6.33;2.67;;;;;;;;5104999;27;28411;-72
2024/01/23 15:03:02;;;;;;;;;6.67;3.00;;;;;;;;5104833;27;28519;-73
2024/01/23 15:05:27;;;;;;;;;3.67;3.67;;;;;;;;5104726;27;29204;-73
2024/01/23 15:07:53;;;;;;;;;9.00;3.33;;;;;;;;5105016;27;28828;-75
2024/01/23 15:10:18;;;;;;;;;4.00;3.00;;;;;;;;5104169;27;29189;-73
2024/01/23 15:12:43;;;;;;;;;6.33;3.67;;;;;;;;5095548;27;30400;-71
2024/01/23 15:15:09;;;;;;;;;5.00;2.67;;;;;;;;5103797;27;28456;-72
2024/01/23 15:17:34;;;;;;;;;4.00;4.00;;;;;;;;5095312;27;27955;-72
2024/01/23 15:20:00;;;;;;;;;9.00;3.67;;;;;;;;5089979;27;28535;-73
2024/01/23 15:22:25;;;;;;;;;8.00;6.00;;;;;;;;5090423;27;28570;-72
2024/01/23 15:24:50;;;;;;;;;5.00;3.00;;;;;;;;5091060;27;29679;-73
2024/01/23 15:27:17;;;;;;;;;10.33;3.33;;;;;;;;5089017;27;28560;-73
2024/01/23 15:29:42;;;;;;;;;9.00;4.33;;;;;;;;5089566;27;28558;-72